deformed-offering
Saratoga-Weather Station Historical Data
 
Daily Summary for July 07, 2020 Units:  English    Metric   Both
Daily Weekly Monthly Yearly
  Current: High: Low: Average:
Temperature: 59.6 °F 59.6 °F 52 °F 55.2 °F
Dew Point: 50 °F 50.3 °F 45.5 °F 47.3 °F
Humidity: 70.6% 79.5% 65% 75%
Wind Speed: 2.6mph 2.6mph 0mph 0.2mph
Wind Gust: 6mph 6mph - -
WindNE - - ENE
Pressure: 29.96 in 29.97 in 29.93 in -
Precipitation: 0.00 in      
 
 
Tabular Data for July 07, 2020
Time Temperature Dew Point Pressure Wind Wind Speed Wind Gust Humidity Rainfall Rate (Hourly) solar
00:04 59.5 °F 47.7 °F 29.97 in Calm     65% 0.00 in 0 W/m2
00:09 59.3 °F 47.5 °F 29.97 in Calm     65% 0.00 in 0 W/m2
00:14 59.2 °F 47.4 °F 29.96 in Calm     65% 0.00 in 0 W/m2
00:19 59.1 °F 47.3 °F 29.96 in Calm     65% 0.00 in 0 W/m2
00:24 58.9 °F 47.4 °F 29.96 in Calm     65.6% 0.00 in 0 W/m2
00:29 58.9 °F 47.8 °F 29.96 in Calm     66.4% 0.00 in 0 W/m2
00:34 58.8 °F 47.9 °F 29.96 in Calm     67.1% 0.00 in 0 W/m2
00:39 58.7 °F 48.2 °F 29.96 in Calm     68% 0.00 in 0 W/m2
00:44 58.6 °F 48.2 °F 29.96 in Calm     68.1% 0.00 in 0 W/m2
00:49 58.5 °F 48.4 °F 29.96 in Calm     69% 0.00 in 0 W/m2
00:54 58.4 °F 48.3 °F 29.96 in Calm     69% 0.00 in 0 W/m2
00:59 58.2 °F 48.1 °F 29.96 in Calm     69% 0.00 in 0 W/m2
01:04 58.1 °F 48.4 °F 29.96 in Calm     69.9% 0.00 in 0 W/m2
01:09 58 °F 48.3 °F 29.96 in Calm     70% 0.00 in 0 W/m2
01:14 57.8 °F 48.3 °F 29.96 in Calm     70.6% 0.00 in 0 W/m2
01:19 57.6 °F 48.3 °F 29.96 in Calm     71% 0.00 in 0 W/m2
01:24 57.5 °F 48.2 °F 29.96 in Calm     71% 0.00 in 0 W/m2
01:29 57.5 °F 48.4 °F 29.96 in Calm     71.8% 0.00 in 0 W/m2
01:34 57.3 °F 48.3 °F 29.96 in Calm     72% 0.00 in 0 W/m2
01:39 57.2 °F 48.3 °F 29.96 in Calm     72% 0.00 in 0 W/m2
01:44 57.1 °F 48.2 °F 29.96 in Calm     72% 0.00 in 0 W/m2
01:49 57 °F 48.3 °F 29.95 in Calm     72.8% 0.00 in 0 W/m2
01:54 56.9 °F 48.3 °F 29.95 in Calm     73% 0.00 in 0 W/m2
01:59 56.7 °F 48.1 °F 29.95 in Calm     73% 0.00 in 0 W/m2
02:04 56.6 °F 48 °F 29.95 in Calm     73% 0.00 in 0 W/m2
02:09 56.6 °F 48 °F 29.95 in Calm     73% 0.00 in 0 W/m2
02:14 56.4 °F 47.8 °F 29.95 in Calm     73% 0.00 in 0 W/m2
02:19 56.3 °F 47.8 °F 29.95 in Calm     73% 0.00 in 0 W/m2
02:24 56.2 °F 47.7 °F 29.95 in Calm     73% 0.00 in 0 W/m2
02:29 56 °F 47.5 °F 29.95 in Calm     73% 0.00 in 0 W/m2
02:34 55.9 °F 47.6 °F 29.95 in Calm     73.8% 0.00 in 0 W/m2
02:39 55.9 °F 47.7 °F 29.95 in Calm     74% 0.00 in 0 W/m2
02:44 55.7 °F 47.5 °F 29.95 in Calm     74% 0.00 in 0 W/m2
02:49 55.7 °F 47.5 °F 29.95 in Calm     74% 0.00 in 0 W/m2
02:54 55.6 °F 47.4 °F 29.94 in Calm     74% 0.00 in 0 W/m2
02:59 55.4 °F 47.2 °F 29.94 in Calm     74% 0.00 in 0 W/m2
03:04 55.3 °F 47.2 °F 29.94 in Calm     74% 0.00 in 0 W/m2
03:09 55.1 °F 47.1 °F 29.94 in Calm     74.1% 0.00 in 0 W/m2
03:14 55 °F 47.2 °F 29.94 in Calm     75% 0.00 in 0 W/m2
03:19 55 °F 47.2 °F 29.94 in Calm     75% 0.00 in 0 W/m2
03:24 54.8 °F 47 °F 29.94 in Calm     75% 0.00 in 0 W/m2
03:29 54.7 °F 46.9 °F 29.94 in Calm     75% 0.00 in 0 W/m2
03:34 54.7 °F 46.9 °F 29.94 in Calm     75% 0.00 in 0 W/m2
03:39 54.5 °F 46.7 °F 29.94 in Calm     75% 0.00 in 0 W/m2
03:44 54.5 °F 46.8 °F 29.94 in Calm     75.3% 0.00 in 0 W/m2
03:49 54.4 °F 47 °F 29.94 in Calm     76% 0.00 in 0 W/m2
03:54 54.3 °F 46.9 °F 29.93 in Calm     76% 0.00 in 0 W/m2
03:59 54.2 °F 46.8 °F 29.93 in Calm     76% 0.00 in 0 W/m2
04:04 54.1 °F 46.7 °F 29.93 in Calm     76% 0.00 in 0 W/m2
04:09 54.1 °F 46.7 °F 29.93 in Calm     76% 0.00 in 0 W/m2
04:14 53.9 °F 46.5 °F 29.93 in Calm     76% 0.00 in 0 W/m2
04:19 53.8 °F 46.4 °F 29.93 in Calm     76% 0.00 in 0 W/m2
04:24 53.7 °F 46.3 °F 29.93 in Calm     76% 0.00 in 0 W/m2
04:29 53.6 °F 46.2 °F 29.93 in Calm     76% 0.00 in 0 W/m2
04:34 53.5 °F 46.1 °F 29.93 in Calm     76% 0.00 in 0 W/m2
04:39 53.4 °F 46 °F 29.93 in Calm     76% 0.00 in 0 W/m2
04:44 53.3 °F 45.9 °F 29.93 in Calm     76% 0.00 in 0 W/m2
04:49 53.2 °F 45.8 °F 29.93 in Calm     76% 0.00 in 0 W/m2
04:54 53.2 °F 45.8 °F 29.93 in Calm     76% 0.00 in 0 W/m2
04:59 53 °F 45.6 °F 29.93 in Calm     76% 0.00 in 0 W/m2
05:04 52.9 °F 45.5 °F 29.93 in Calm     76% 0.00 in 0 W/m2
05:09 52.9 °F 45.8 °F 29.93 in Calm     76.8% 0.00 in 0 W/m2
05:14 52.9 °F 46.1 °F 29.94 in Calm     77.9% 0.00 in 0 W/m2
05:19 52.8 °F 46.1 °F 29.94 in Calm     78% 0.00 in 0 W/m2
05:24 52.8 °F 46.1 °F 29.94 in Calm     78% 0.00 in 0 W/m2
05:29 52.6 °F 45.9 °F 29.94 in Calm     78% 0.00 in 0 W/m2
05:34 52.6 °F 45.9 °F 29.94 in Calm     78% 0.00 in 0 W/m2
05:39 52.5 °F 45.8 °F 29.94 in Calm     78% 0.00 in 0 W/m2
05:44 52.5 °F 45.8 °F 29.94 in Calm     78% 0.00 in 0 W/m2
05:49 52.3 °F 45.6 °F 29.94 in Calm     78% 0.00 in 0 W/m2
05:54 52.3 °F 45.7 °F 29.94 in Calm     78.3% 0.00 in 0 W/m2
05:59 52.2 °F 45.9 °F 29.94 in Calm     79% 0.00 in 5 W/m2
06:04 52.2 °F 45.9 °F 29.94 in Calm     79% 0.00 in 5 W/m2
06:09 52.2 °F 45.9 °F 29.94 in Calm     79% 0.00 in 9 W/m2
06:14 52 °F 45.7 °F 29.94 in Calm     79% 0.00 in 14 W/m2
06:19 52 °F 45.7 °F 29.94 in Calm     79% 0.00 in 18 W/m2
06:24 52 °F 45.7 °F 29.94 in Calm     79% 0.00 in 19 W/m2
06:29 52 °F 45.7 °F 29.94 in Calm     79% 0.00 in 21 W/m2
06:34 52 °F 45.7 °F 29.95 in Calm     79% 0.00 in 23 W/m2
06:39 52.1 °F 45.8 °F 29.95 in Calm     79% 0.00 in 70 W/m2
06:44 52.2 °F 45.9 °F 29.95 in Calm     79% 0.00 in 79 W/m2
06:49 52.3 °F 46.2 °F 29.95 in Calm     79.5% 0.00 in 91 W/m2
06:54 52.5 °F 46.3 °F 29.95 in Calm     79.3% 0.00 in 150 W/m2
06:59 52.7 °F 46.4 °F 29.95 in Calm     79% 0.00 in 162 W/m2
07:04 52.8 °F 46.5 °F 29.95 in Calm     79% 0.00 in 178 W/m2
07:09 53.1 °F 46.8 °F 29.95 in ENE 0.5 mph 2.3 mph 79% 0.00 in 194 W/m2
07:14 53.2 °F 46.9 °F 29.95 in Calm   2 mph 79% 0.00 in 209 W/m2
07:19 53.5 °F 47 °F 29.95 in Calm     78.9% 0.00 in 225 W/m2
07:24 53.6 °F 46.9 °F 29.95 in ENE 0.9 mph 3.5 mph 78% 0.00 in 241 W/m2
07:29 53.9 °F 47.2 °F 29.95 in ENE 0.3 mph 3.5 mph 78% 0.00 in 257 W/m2
07:34 54.1 °F 47.4 °F 29.95 in ENE 0.3 mph 3.5 mph 78% 0.00 in 269 W/m2
07:39 54.4 °F 47.7 °F 29.95 in Calm   3 mph 78% 0.00 in 287 W/m2
07:44 54.8 °F 48.1 °F 29.95 in Calm     78.2% 0.00 in 301 W/m2
07:49 55.2 °F 48.5 °F 29.95 in Calm     78% 0.00 in 317 W/m2
07:54 55.6 °F 49 °F 29.95 in ENE 0.5 mph 2.3 mph 78.4% 0.00 in 333 W/m2
07:59 55.8 °F 49.4 °F 29.95 in ENE 1.2 mph 3.5 mph 78.8% 0.00 in 347 W/m2
08:04 56.3 °F 49.9 °F 29.95 in East 1.3 mph 3.5 mph 79% 0.00 in 362 W/m2
08:09 56.6 °F 49.9 °F 29.95 in NE 1 mph 5 mph 78.2% 0.00 in 377 W/m2
08:14 56.9 °F 50.1 °F 29.95 in ENE 1.9 mph 5 mph 78% 0.00 in 391 W/m2
08:19 57.2 °F 50.1 °F 29.95 in ENE 1.2 mph 5 mph 77.1% 0.00 in 405 W/m2
08:24 57.6 °F 50.3 °F 29.95 in ENE 1.3 mph 4 mph 76.7% 0.00 in 419 W/m2
08:29 58 °F 50 °F 29.95 in ENE 1.9 mph 4 mph 74.7% 0.00 in 433 W/m2
08:34 58.4 °F 49.9 °F 29.95 in East 1.1 mph 4 mph 73.6% 0.00 in 447 W/m2
08:39 58.8 °F 50.1 °F 29.96 in East 0.2 mph 3 mph 72.7% 0.00 in 463 W/m2
08:44 59.2 °F 50.2 °F 29.96 in East 0.7 mph 3.5 mph 71.9% 0.00 in 477 W/m2
08:49 59.6 °F 50 °F 29.96 in NE 2.6 mph 6 mph 70.6% 0.00 in 489 W/m2
Saratoga, California, USA
Compliments of Weather Underground - 2 mb

WU-history PHP script courtesy of Juneau County Weather and modified for WU/TWC API use by Saratoga-weather.org

This script set is available on GitHub.

deformed-offering